Latest Weather Observations for Clermont Airport

IDQ60801

Issued at 6:32 pm EST Saturday 13 February 2016 (issued every 30 minutes, with the page automatically refreshed every 10 minutes)

About weather observations | Map of weather stations | Latest weather observations for QLD | Other Formats
Station Details ID: 035124 Name: CLERMONT AIRPORT Lat: -22.78 Lon: 147.62 Height: 270.27 m
Data from the previous 72 hours. | See also: Recent months at Clermont Airport
Date/Time
EST
Temp
°C
App
Temp
°C
Dew
Point
Rel
Hum
%
Delta-T
°C
Wind Press
QNH
hPa
Press
MSL
hPa
Rain
since 9 am
mm
Dir
 
Spd
km/h
Gust
km/h
Spd
kts
Gust
kts
13/06:30pm 31.1 30.2 12.5 32 11.1 SE 9 15 5 8 1007.8 1006.0 0.0
13/06:00pm 31.9 30.7 12.7 31 11.6 SE 11 17 6 9 1007.5 1005.7 0.0
13/05:30pm 32.5 31.0 13.2 31 11.7 S 13 17 7 9 1007.5 1005.7 0.0
13/05:00pm 32.5 30.5 12.7 30 12.0 SSE 15 22 8 12 1007.4 1005.6 0.0
13/04:30pm 32.8 29.9 12.9 29 12.0 SSE 20 35 11 19 1007.4 1005.6 0.0
13/04:00pm 32.8 30.0 11.3 27 12.7 SSE 17 30 9 16 1007.6 1005.8 0.0
13/03:30pm 33.0 30.4 13.1 30 12.1 S 19 43 10 23 1007.9 1006.1 0.0
13/03:00pm 32.5 29.9 13.2 31 11.7 S 19 32 10 17 1007.9 1006.1 0.0
13/02:30pm 32.9 30.7 14.5 33 11.4 SSE 19 32 10 17 1008.3 1006.5 0.0
13/02:00pm 32.6 29.6 14.7 34 11.1 S 24 33 13 18 1008.6 1006.8 0.0
13/01:30pm 32.0 30.2 15.5 37 10.3 SE 19 35 10 19 1009.0 1007.2 0.0
13/01:00pm 31.8 29.8 14.9 36 10.5 SSE 19 35 10 19 1009.4 1007.6 0.0
13/12:30pm 31.3 29.6 15.7 39 9.8 SE 19 32 10 17 1009.8 1008.0 0.0
13/12:00pm 30.4 29.3 15.3 40 9.4 SSE 15 32 8 17 1010.3 1008.5 0.0
13/11:30am 29.7 29.4 16.5 45 8.3 SSE 13 20 7 11 1010.7 1008.9 0.0
13/11:00am 29.9 30.4 17.4 47 8.0 SSE 11 22 6 12 1011.2 1009.4 0.0
13/10:30am 28.9 29.0 17.4 49 7.3 SSE 13 22 7 12 1011.5 1009.7 0.0
13/10:00am 28.2 28.3 17.4 52 6.9 SSE 13 19 7 10 1011.6 1009.8 0.0
13/09:30am 27.7 28.8 18.1 56 6.2 SE 9 15 5 8 1011.7 1009.9 0.0
13/09:00am 26.6 28.4 18.2 60 5.4 SE 6 11 3 6 1011.7 1009.9 0.0
13/08:30am 25.4 27.0 17.8 62 4.8 SSW 6 9 3 5 1011.7 1009.9 0.0
13/08:00am 24.3 26.4 18.0 68 4.0 SSW 4 6 2 3 1011.6 1009.8 0.0
13/07:30am 22.9 24.7 17.4 71 3.4 SSW 4 6 2 3 1011.6 1009.8 0.0
13/07:00am 20.8 23.1 17.6 82 2.0 S 2 4 1 2 1011.6 1009.8 0.0
13/06:30am 18.4 20.7 16.7 90 1.0 CALM 0 0 0 0 1011.1 1009.3 0.0
13/06:00am 17.9 20.0 16.2 90 1.0 CALM 0 0 0 0 1010.8 1009.0 0.0
13/05:30am 17.9 20.1 16.4 91 0.9 CALM 0 0 0 0 1010.3 1008.5 0.0
13/05:00am 18.1 20.2 16.3 89 1.1 CALM 0 0 0 0 1009.9 1008.1 0.0
13/04:30am 18.2 19.6 16.5 90 1.0 SSW 4 4 2 2 1009.7 1007.9 0.0
13/04:00am 18.4 20.6 16.4 88 1.2 CALM 0 0 0 0 1009.7 1007.9 0.0
13/03:30am 18.7 20.8 16.3 86 1.5 CALM 0 0 0 0 1009.6 1007.8 0.0
13/03:00am 18.9 21.2 16.7 87 1.3 CALM 0 0 0 0 1009.9 1008.1 0.0
13/02:30am 19.2 21.4 16.4 84 1.7 CALM 0 0 0 0 1010.3 1008.5 0.0
13/02:00am 19.8 22.0 16.4 81 2.1 CALM 0 0 0 0 1010.3 1008.5 0.0
13/01:30am 20.3 22.2 16.7 80 2.2 SW 2 2 1 1 1010.5 1008.7 0.0
13/01:00am 20.0 21.1 16.6 81 2.1 W 6 6 3 3 1010.7 1008.9 0.0
13/12:30am 20.5 21.9 16.5 78 2.4 WSW 4 7 2 4 1010.9 1009.1 0.0
13/12:00am 20.4 22.7 16.8 80 2.2 CALM 0 0 0 0 1011.1 1009.3 0.0
 
Date/Time
EST
Temp
°C
App
Temp
°C
Dew
Point
Rel
Hum
%
Delta-T
°C
Wind Press
QNH
hPa
Press
MSL
hPa
Rain
since 9 am
mm
Dir
 
Spd
km/h
Gust
km/h
Spd
kts
Gust
kts
12/11:30pm 21.1 23.6 17.3 79 2.4 CALM 0 0 0 0 1011.1 1009.3 0.0
12/11:00pm 21.6 23.8 16.6 73 3.1 CALM 0 0 0 0 1011.1 1009.3 0.0
12/10:30pm 22.1 24.6 17.2 74 3.0 CALM 0 0 0 0 1011.2 1009.4 0.0
12/10:00pm 22.9 25.2 16.7 68 3.8 CALM 0 0 0 0 1011.2 1009.4 0.0
12/09:30pm 23.3 25.5 16.6 66 4.1 CALM 0 0 0 0 1011.1 1009.3 0.0
12/09:00pm 25.5 27.1 14.9 52 6.4 CALM 0 0 0 0 1010.7 1008.9 0.0
12/08:30pm 27.3 27.6 13.3 42 8.3 SE 4 7 2 4 1010.4 1008.6 0.0
12/08:00pm 27.9 27.7 13.1 40 8.8 SE 6 7 3 4 1010.0 1008.2 0.0
12/07:30pm 28.6 28.4 12.9 38 9.3 SE 6 7 3 4 1009.7 1007.9 0.0
12/07:00pm 29.3 29.1 13.5 38 9.5 SE 7 11 4 6 1009.4 1007.6 0.0
12/06:30pm 30.3 29.1 12.7 34 10.5 SE 11 19 6 10 1009.2 1007.4 0.0
12/06:00pm 31.1 29.2 12.9 32 11.0 SE 15 30 8 16 1009.2 1007.4 0.0
12/05:30pm 31.7 30.5 13.9 34 10.9 SE 13 20 7 11 1009.1 1007.3 0.0
12/05:00pm 31.3 29.0 13.1 33 11.0 SE 17 28 9 15 1008.9 1007.1 0.0
12/04:30pm 32.3 30.0 13.0 31 11.7 SSE 17 28 9 15 1008.8 1007.0 0.0
12/04:00pm 32.0 28.9 11.7 28 12.0 SE 19 33 10 18 1008.9 1007.1 0.0
12/03:30pm 32.2 30.0 14.8 35 10.8 S 20 32 11 17 1008.9 1007.1 0.0
12/03:00pm 31.9 29.7 14.5 34 10.8 SE 19 30 10 16 1009.1 1007.3 0.0
12/02:30pm 31.9 29.4 12.2 30 11.8 SSE 17 35 9 19 1009.6 1007.8 0.0
12/02:00pm 32.2 29.5 12.9 31 11.7 SSE 19 28 10 15 1009.9 1008.1 0.0
12/01:30pm 31.5 29.9 15.0 36 10.3 SSE 17 28 9 15 1010.3 1008.5 0.0
12/01:00pm 30.4 28.6 14.5 38 9.8 SE 17 26 9 14 1010.7 1008.9 0.0
12/12:30pm 30.7 30.2 15.9 40 9.3 SSE 13 26 7 14 1011.1 1009.3 0.0
12/12:00pm 30.3 30.3 16.3 42 8.8 SSE 11 22 6 12 1011.5 1009.7 0.0
12/11:30am 29.5 30.3 17.3 47 7.8 S 9 20 5 11 1011.9 1010.1 0.0
12/11:00am 29.4 29.7 17.9 50 7.4 SSE 13 19 7 10 1012.1 1010.3 0.0
12/10:30am 28.7 29.3 17.6 51 7.1 SE 11 20 6 11 1012.5 1010.7 0.0
12/10:00am 27.6 28.5 17.5 54 6.4 SE 9 17 5 9 1012.8 1011.0 0.0
12/09:30am 26.6 27.6 17.7 58 5.7 SSE 9 15 5 8 1013.2 1011.4 0.0
12/09:00am 25.8 27.3 18.0 62 5.0 SSE 7 15 4 8 1013.3 1011.5 0.0
12/08:30am 25.3 26.8 18.0 64 4.6 ESE 7 13 4 7 1013.2 1011.4 0.0
12/08:00am 24.5 26.5 18.7 70 3.7 ESE 6 11 3 6 1013.1 1011.3 0.0
12/07:30am 23.2 25.2 18.7 76 2.9 SE 6 7 3 4 1013.0 1011.2 0.0
12/07:00am 21.6 24.1 18.2 81 2.1 SSE 2 6 1 3 1012.8 1011.0 0.0
12/06:30am 19.2 21.9 17.7 91 0.9 CALM 0 0 0 0 1012.6 1010.8 0.0
12/06:00am 18.6 21.0 17.1 91 0.9 CALM 0 2 0 1 1012.3 1010.5 0.0
12/05:30am 18.4 20.1 17.1 92 0.8 WSW 4 6 2 3 1011.9 1010.1 0.0
12/05:00am 18.6 21.0 17.1 91 0.9 CALM 0 2 0 1 1011.6 1009.8 0.0
12/04:30am 18.7 20.5 17.4 92 0.8 SW 4 6 2 3 1011.4 1009.6 0.0
12/04:00am 18.8 20.9 17.3 91 0.9 SSW 2 6 1 3 1011.0 1009.2 0.0
12/03:30am 19.1 21.6 17.2 89 1.2 CALM 0 0 0 0 1010.9 1009.1 0.0
12/03:00am 19.5 22.1 17.5 88 1.2 CALM 0 0 0 0 1010.9 1009.1 0.0
12/02:30am 19.3 21.9 17.6 90 1.1 CALM 0 0 0 0 1010.9 1009.1 0.0
12/02:00am 19.4 22.0 17.4 88 1.2 CALM 0 0 0 0 1011.1 1009.3 0.0
12/01:30am 19.5 21.7 17.5 88 1.2 NNE 2 4 1 2 1011.3 1009.5 0.0
12/01:00am 19.8 22.4 17.4 86 1.5 CALM 0 0 0 0 1011.3 1009.5 0.0
12/12:30am 20.1 22.8 17.7 86 1.5 CALM 0 2 0 1 1011.3 1009.5 0.0
12/12:00am 20.2 22.9 17.8 86 1.5 CALM 0 2 0 1 1011.3 1009.5 0.0
 
Date/Time
EST
Temp
°C
App
Temp
°C
Dew
Point
Rel
Hum
%
Delta-T
°C
Wind Press
QNH
hPa
Press
MSL
hPa
Rain
since 9 am
mm
Dir
 
Spd
km/h
Gust
km/h
Spd
kts
Gust
kts
11/11:30pm 20.8 23.5 17.8 83 1.9 CALM 0 0 0 0 1011.4 1009.6 0.0
11/11:00pm 21.2 22.9 18.0 82 2.0 W 6 7 3 4 1011.3 1009.5 0.0
11/10:30pm 21.5 24.1 17.5 78 2.5 CALM 0 0 0 0 1011.3 1009.5 0.0
11/10:00pm 22.3 24.5 17.4 74 3.1 SW 2 2 1 1 1011.4 1009.6 0.0
11/09:30pm 22.9 25.3 17.1 70 3.6 CALM 0 0 0 0 1011.3 1009.5 0.0
11/09:00pm 24.6 26.9 16.8 62 4.9 CALM 0 0 0 0 1011.1 1009.3 0.0
11/08:30pm 26.0 27.1 14.5 49 6.9 SSE 2 6 1 3 1010.9 1009.1 0.0
11/08:00pm 27.4 27.8 14.8 46 7.7 SE 6 7 3 4 1010.6 1008.8 0.0
11/07:30pm 27.9 28.2 14.5 44 8.2 SSE 6 7 3 4 1010.3 1008.5 0.0
11/07:00pm 28.8 28.8 14.2 40 8.9 SSE 7 15 4 8 1009.9 1008.1 0.0
11/06:30pm 29.8 28.2 14.0 38 9.6 SSE 15 24 8 13 1009.7 1007.9 0.0
11/06:00pm 30.0 29.5 14.9 39 9.3 SSE 11 17 6 9 1009.4 1007.6 0.0
11/05:30pm 30.6 30.0 14.7 38 9.8 SE 11 20 6 11 1009.1 1007.3 0.0
11/05:00pm 31.0 30.4 14.6 37 10.1 SSE 11 17 6 9 1008.8 1007.0 0.0
11/04:30pm 31.0 29.5 15.4 38 9.7 S 17 26 9 14 1008.6 1006.8 0.0
11/04:00pm 31.6 31.5 16.0 39 9.9 S 11 19 6 10 1008.6 1006.8 0.0
11/03:30pm 31.5 31.6 15.5 38 10.0 ESE 9 17 5 9 1008.6 1006.8 0.0
11/03:00pm 30.9 30.1 14.1 36 10.3 SE 11 20 6 11 1008.8 1007.0 0.0
11/02:30pm 31.6 31.6 17.1 41 9.3 SE 13 24 7 13 1009.1 1007.3 0.0
11/02:00pm 30.9 30.2 16.5 42 9.1 SE 15 24 8 13 1009.6 1007.8 0.0
11/01:30pm 30.3 28.8 15.2 40 9.4 SE 17 28 9 15 1010.1 1008.3 0.0
11/01:00pm 30.6 30.1 15.8 40 9.3 SE 13 22 7 12 1010.6 1008.8 0.0
11/12:30pm 29.0 27.7 15.9 45 8.2 SSE 17 28 9 15 1011.1 1009.3 0.0
11/12:00pm 28.6 27.7 15.8 45 8.0 SE 15 26 8 14 1011.6 1009.8 0.0
11/11:30am 29.0 28.3 16.5 46 7.9 SE 15 24 8 13 1011.9 1010.1 0.0
11/11:00am 27.9 27.1 16.2 49 7.3 ESE 15 24 8 13 1012.1 1010.3 0.0
11/10:30am 27.8 27.3 17.9 54 6.3 SE 17 28 9 15 1012.4 1010.6 0.0
11/10:00am 27.4 27.7 18.7 59 5.6 SE 15 24 8 13 1012.6 1010.8 0.0
11/09:30am 26.6 27.6 18.7 62 5.1 SE 11 19 6 10 1012.7 1010.9 0.0
11/09:00am 26.0 27.3 19.2 66 4.4 ESE 11 19 6 10 1012.9 1011.1 0.0
11/08:30am 25.6 27.3 19.3 68 4.1 ESE 9 17 5 9 1012.7 1010.9 0.0
11/08:00am 24.4 25.9 18.8 71 3.6 ESE 9 15 5 8 1012.6 1010.8 0.0
11/07:30am 23.8 25.3 18.9 74 3.1 ESE 9 13 5 7 1012.5 1010.7 0.0
11/07:00am 22.1 24.1 18.7 81 2.2 SSE 6 9 3 5 1012.2 1010.4 0.0
11/06:30am 20.1 21.9 18.2 89 1.2 SSW 6 6 3 3 1011.8 1010.0 0.0
11/06:00am 19.7 22.4 17.8 89 1.2 CALM 0 2 0 1 1011.4 1009.6 0.0
11/05:30am 19.9 22.2 17.7 87 1.4 SSW 2 4 1 2 1011.0 1009.2 0.0
11/05:00am 20.2 22.4 18.3 89 1.2 S 4 6 2 3 1010.5 1008.7 0.0
11/04:30am 19.2 22.0 17.9 92 0.8 CALM 0 4 0 2 1010.4 1008.6 0.0
11/04:00am 19.4 22.2 17.9 91 0.9 CALM 0 0 0 0 1010.1 1008.3 0.0
11/03:30am 19.4 22.1 17.7 90 1.1 CALM 0 0 0 0 1010.0 1008.2 0.0
11/03:00am 19.6 22.4 17.9 90 1.1 CALM 0 0 0 0 1010.1 1008.3 0.0
11/02:30am 19.7 22.5 18.0 90 1.1 CALM 0 0 0 0 1010.1 1008.3 0.0
11/02:00am 19.9 22.7 18.0 89 1.2 CALM 0 0 0 0 1010.1 1008.3 0.0
11/01:30am 20.2 23.1 18.1 88 1.3 CALM 0 0 0 0 1010.3 1008.5 0.0
11/01:00am 20.7 23.6 18.1 85 1.6 CALM 0 0 0 0 1010.6 1008.8 0.0
11/12:30am 20.5 23.1 18.3 87 1.4 WSW 2 6 1 3 1010.9 1009.1 0.0
11/12:00am 20.5 23.0 18.1 86 1.5 WSW 2 2 1 1 1011.1 1009.3 0.0
 
Date/Time
EST
Temp
°C
App
Temp
°C
Dew
Point
Rel
Hum
%
Delta-T
°C
Wind Press
QNH
hPa
Press
MSL
hPa
Rain
since 9 am
mm
Dir
 
Spd
km/h
Gust
km/h
Spd
kts
Gust
kts
10/11:30pm 20.8 23.7 18.2 85 1.6 CALM 0 4 0 2 1011.3 1009.5 0.0
10/11:00pm 21.1 24.0 18.1 83 1.9 CALM 0 0 0 0 1011.5 1009.7 0.0
10/10:30pm 21.8 24.7 18.2 80 2.3 CALM 0 0 0 0 1011.6 1009.8 0.0
10/10:00pm 22.9 25.3 16.9 69 3.7 CALM 0 0 0 0 1011.7 1009.9 0.0
10/09:30pm 24.4 26.0 15.9 59 5.2 SE 2 4 1 2 1011.5 1009.7 0.0
10/09:00pm 25.5 26.2 14.6 51 6.6 SSE 4 7 2 4 1011.4 1009.6 0.0
10/08:30pm 26.1 26.6 14.9 50 6.8 SE 6 7 3 4 1011.3 1009.5 0.0
10/08:00pm 26.0 26.9 15.1 51 6.7 SE 4 7 2 4 1011.1 1009.3 0.0
10/07:30pm 27.2 27.5 14.6 46 7.7 SE 6 9 3 5 1010.9 1009.1 0.0
10/07:00pm 28.0 28.0 14.3 43 8.3 SSE 7 15 4 8 1010.6 1008.8 0.0

Other Formats:

Comma delimited format used in spreadsheet applications
http://www.bom.gov.au/fwo/IDQ60801/IDQ60801.94395.axf

JavaScript Object Notation format (JSON) in row-major order
http://www.bom.gov.au/fwo/IDQ60801/IDQ60801.94395.json